sensor_id;sensor_type;location;lat;lon;timestamp;P1;durP1;ratioP1;P2;durP2;ratioP2
25962;SDS011;13760;52.588;13.406;2022-09-02T00:00:42;2.67;;;1.80;;
25962;SDS011;13760;52.588;13.406;2022-09-02T00:03:17;3.17;;;1.90;;
25962;SDS011;13760;52.588;13.406;2022-09-02T00:05:53;4.15;;;1.98;;
25962;SDS011;13760;52.588;13.406;2022-09-02T00:08:19;2.30;;;1.75;;
25962;SDS011;13760;52.588;13.406;2022-09-02T00:10:45;2.55;;;1.92;;
25962;SDS011;13760;52.588;13.406;2022-09-02T00:13:12;2.83;;;1.88;;
25962;SDS011;13760;52.588;13.406;2022-09-02T00:15:39;7.38;;;2.08;;
25962;SDS011;13760;52.588;13.406;2022-09-02T00:18:05;2.75;;;2.03;;
25962;SDS011;13760;52.588;13.406;2022-09-02T00:20:31;6.55;;;2.55;;
25962;SDS011;13760;52.588;13.406;2022-09-02T00:23:00;3.67;;;1.90;;
25962;SDS011;13760;52.588;13.406;2022-09-02T00:25:26;3.25;;;1.80;;
25962;SDS011;13760;52.588;13.406;2022-09-02T00:27:52;4.38;;;2.03;;
25962;SDS011;13760;52.588;13.406;2022-09-02T00:30:17;4.75;;;1.80;;
25962;SDS011;13760;52.588;13.406;2022-09-02T00:32:46;3.90;;;2.00;;
25962;SDS011;13760;52.588;13.406;2022-09-02T00:35:14;5.18;;;2.10;;
25962;SDS011;13760;52.588;13.406;2022-09-02T00:37:40;4.78;;;2.00;;
25962;SDS011;13760;52.588;13.406;2022-09-02T00:40:06;4.53;;;2.05;;
25962;SDS011;13760;52.588;13.406;2022-09-02T00:42:38;3.60;;;2.08;;
25962;SDS011;13760;52.588;13.406;2022-09-02T00:47:33;2.67;;;1.88;;
25962;SDS011;13760;52.588;13.406;2022-09-02T00:50:00;3.42;;;2.10;;
25962;SDS011;13760;52.588;13.406;2022-09-02T00:52:34;3.55;;;1.98;;
25962;SDS011;13760;52.588;13.406;2022-09-02T00:55:12;2.50;;;1.80;;
25962;SDS011;13760;52.588;13.406;2022-09-02T00:57:48;3.47;;;1.73;;
25962;SDS011;13760;52.588;13.406;2022-09-02T01:00:20;5.40;;;1.95;;
25962;SDS011;13760;52.588;13.406;2022-09-02T01:03:05;7.32;;;2.10;;
25962;SDS011;13760;52.588;13.406;2022-09-02T01:05:36;6.78;;;1.90;;
25962;SDS011;13760;52.588;13.406;2022-09-02T01:08:07;3.42;;;1.40;;
25962;SDS011;13760;52.588;13.406;2022-09-02T01:10:35;3.67;;;1.98;;
25962;SDS011;13760;52.588;13.406;2022-09-02T01:13:13;3.67;;;1.60;;
25962;SDS011;13760;52.588;13.406;2022-09-02T01:15:46;2.73;;;1.70;;
25962;SDS011;13760;52.588;13.406;2022-09-02T01:18:17;4.22;;;1.60;;
25962;SDS011;13760;52.588;13.406;2022-09-02T01:20:55;4.75;;;1.67;;
25962;SDS011;13760;52.588;13.406;2022-09-02T01:23:27;2.28;;;1.50;;
25962;SDS011;13760;52.588;13.406;2022-09-02T01:26:04;2.90;;;1.48;;
25962;SDS011;13760;52.588;13.406;2022-09-02T01:28:34;4.65;;;1.85;;
25962;SDS011;13760;52.588;13.406;2022-09-02T01:31:03;3.45;;;1.60;;
25962;SDS011;13760;52.588;13.406;2022-09-02T01:33:32;3.13;;;1.50;;
25962;SDS011;13760;52.588;13.406;2022-09-02T01:35:58;2.40;;;1.60;;
25962;SDS011;13760;52.588;13.406;2022-09-02T01:38:26;2.25;;;1.42;;
25962;SDS011;13760;52.588;13.406;2022-09-02T01:40:58;2.70;;;1.50;;
25962;SDS011;13760;52.588;13.406;2022-09-02T01:43:26;2.03;;;1.55;;
25962;SDS011;13760;52.588;13.406;2022-09-02T01:46:01;1.42;;;1.17;;
25962;SDS011;13760;52.588;13.406;2022-09-02T01:48:39;3.00;;;1.40;;
25962;SDS011;13760;52.588;13.406;2022-09-02T01:51:14;1.55;;;1.20;;
25962;SDS011;13760;52.588;13.406;2022-09-02T01:53:42;3.83;;;1.38;;
25962;SDS011;13760;52.588;13.406;2022-09-02T01:56:13;4.75;;;1.45;;
25962;SDS011;13760;52.588;13.406;2022-09-02T01:58:44;3.28;;;1.60;;
25962;SDS011;13760;52.588;13.406;2022-09-02T02:01:10;1.38;;;1.20;;
25962;SDS011;13760;52.588;13.406;2022-09-02T02:03:38;3.33;;;1.27;;
25962;SDS011;13760;52.588;13.406;2022-09-02T02:06:08;8.05;;;1.73;;
25962;SDS011;13760;52.588;13.406;2022-09-02T02:08:35;3.42;;;1.45;;
25962;SDS011;13760;52.588;13.406;2022-09-02T02:11:02;2.88;;;1.40;;
25962;SDS011;13760;52.588;13.406;2022-09-02T02:13:31;3.05;;;1.30;;
25962;SDS011;13760;52.588;13.406;2022-09-02T02:16:01;2.00;;;1.20;;
25962;SDS011;13760;52.588;13.406;2022-09-02T02:18:27;2.03;;;1.38;;
25962;SDS011;13760;52.588;13.406;2022-09-02T02:20:53;1.85;;;1.13;;
25962;SDS011;13760;52.588;13.406;2022-09-02T02:23:19;2.58;;;1.30;;
25962;SDS011;13760;52.588;13.406;2022-09-02T02:25:49;1.70;;;1.27;;
25962;SDS011;13760;52.588;13.406;2022-09-02T02:28:15;3.72;;;1.38;;
25962;SDS011;13760;52.588;13.406;2022-09-02T02:30:40;1.73;;;1.30;;
25962;SDS011;13760;52.588;13.406;2022-09-02T02:33:09;3.80;;;1.35;;
25962;SDS011;13760;52.588;13.406;2022-09-02T02:35:35;2.65;;;1.50;;
25962;SDS011;13760;52.588;13.406;2022-09-02T02:38:03;2.50;;;1.50;;
25962;SDS011;13760;52.588;13.406;2022-09-02T02:40:29;2.40;;;1.40;;
25962;SDS011;13760;52.588;13.406;2022-09-02T02:42:55;3.25;;;1.35;;
25962;SDS011;13760;52.588;13.406;2022-09-02T02:45:21;3.97;;;1.30;;
25962;SDS011;13760;52.588;13.406;2022-09-02T02:47:47;4.57;;;1.33;;
25962;SDS011;13760;52.588;13.406;2022-09-02T02:50:14;3.50;;;1.80;;
25962;SDS011;13760;52.588;13.406;2022-09-02T02:52:42;2.88;;;1.23;;
25962;SDS011;13760;52.588;13.406;2022-09-02T02:55:09;4.32;;;1.45;;
25962;SDS011;13760;52.588;13.406;2022-09-02T02:57:36;3.22;;;1.60;;
25962;SDS011;13760;52.588;13.406;2022-09-02T03:00:04;2.15;;;1.13;;
25962;SDS011;13760;52.588;13.406;2022-09-02T03:02:38;3.22;;;1.45;;
25962;SDS011;13760;52.588;13.406;2022-09-02T03:05:04;2.35;;;1.60;;
25962;SDS011;13760;52.588;13.406;2022-09-02T03:07:31;1.98;;;1.40;;
25962;SDS011;13760;52.588;13.406;2022-09-02T03:09:57;3.53;;;1.50;;
25962;SDS011;13760;52.588;13.406;2022-09-02T03:12:23;4.75;;;1.50;;
25962;SDS011;13760;52.588;13.406;2022-09-02T03:14:49;2.28;;;1.40;;
25962;SDS011;13760;52.588;13.406;2022-09-02T03:17:15;2.28;;;1.30;;
25962;SDS011;13760;52.588;13.406;2022-09-02T03:19:40;2.35;;;1.40;;
25962;SDS011;13760;52.588;13.406;2022-09-02T03:22:06;3.42;;;1.40;;
25962;SDS011;13760;52.588;13.406;2022-09-02T03:24:31;3.65;;;1.40;;
25962;SDS011;13760;52.588;13.406;2022-09-02T03:26:57;3.38;;;1.65;;
25962;SDS011;13760;52.588;13.406;2022-09-02T03:29:23;2.22;;;1.42;;
25962;SDS011;13760;52.588;13.406;2022-09-02T03:31:48;2.05;;;1.58;;
25962;SDS011;13760;52.588;13.406;2022-09-02T03:34:14;2.22;;;1.70;;
25962;SDS011;13760;52.588;13.406;2022-09-02T03:36:39;3.97;;;1.60;;
25962;SDS011;13760;52.588;13.406;2022-09-02T03:39:08;3.03;;;1.65;;
25962;SDS011;13760;52.588;13.406;2022-09-02T03:41:35;1.77;;;1.30;;
25962;SDS011;13760;52.588;13.406;2022-09-02T03:44:01;5.25;;;1.70;;
25962;SDS011;13760;52.588;13.406;2022-09-02T03:46:27;2.75;;;1.58;;
25962;SDS011;13760;52.588;13.406;2022-09-02T03:49:13;2.33;;;1.50;;
25962;SDS011;13760;52.588;13.406;2022-09-02T03:51:43;2.05;;;1.45;;
25962;SDS011;13760;52.588;13.406;2022-09-02T03:54:09;5.97;;;1.92;;
25962;SDS011;13760;52.588;13.406;2022-09-02T03:56:47;2.17;;;1.70;;
25962;SDS011;13760;52.588;13.406;2022-09-02T03:59:13;4.35;;;1.80;;
25962;SDS011;13760;52.588;13.406;2022-09-02T04:01:39;2.97;;;1.50;;
25962;SDS011;13760;52.588;13.406;2022-09-02T04:04:06;1.92;;;1.40;;
25962;SDS011;13760;52.588;13.406;2022-09-02T04:06:40;3.63;;;1.90;;
25962;SDS011;13760;52.588;13.406;2022-09-02T04:09:11;2.15;;;1.67;;
25962;SDS011;13760;52.588;13.406;2022-09-02T04:11:37;3.92;;;1.75;;
25962;SDS011;13760;52.588;13.406;2022-09-02T04:14:06;4.43;;;1.83;;
25962;SDS011;13760;52.588;13.406;2022-09-02T04:16:33;4.28;;;1.92;;
25962;SDS011;13760;52.588;13.406;2022-09-02T04:19:00;5.82;;;1.80;;
25962;SDS011;13760;52.588;13.406;2022-09-02T04:21:35;3.40;;;1.80;;
25962;SDS011;13760;52.588;13.406;2022-09-02T04:24:06;3.42;;;1.90;;
25962;SDS011;13760;52.588;13.406;2022-09-02T04:26:36;3.70;;;1.85;;
25962;SDS011;13760;52.588;13.406;2022-09-02T04:29:02;2.75;;;1.77;;
25962;SDS011;13760;52.588;13.406;2022-09-02T04:31:28;3.03;;;1.75;;
25962;SDS011;13760;52.588;13.406;2022-09-02T04:33:55;5.18;;;1.77;;
25962;SDS011;13760;52.588;13.406;2022-09-02T04:36:22;5.57;;;2.17;;
25962;SDS011;13760;52.588;13.406;2022-09-02T04:38:48;4.50;;;1.80;;
25962;SDS011;13760;52.588;13.406;2022-09-02T04:41:27;3.28;;;1.90;;
25962;SDS011;13760;52.588;13.406;2022-09-02T04:43:54;2.72;;;1.90;;
25962;SDS011;13760;52.588;13.406;2022-09-02T04:46:22;2.60;;;1.75;;
25962;SDS011;13760;52.588;13.406;2022-09-02T04:48:48;2.45;;;1.75;;
25962;SDS011;13760;52.588;13.406;2022-09-02T04:51:16;3.90;;;2.10;;
25962;SDS011;13760;52.588;13.406;2022-09-02T04:53:44;3.92;;;1.90;;
25962;SDS011;13760;52.588;13.406;2022-09-02T04:56:11;4.60;;;2.03;;
25962;SDS011;13760;52.588;13.406;2022-09-02T04:58:39;7.30;;;1.92;;
25962;SDS011;13760;52.588;13.406;2022-09-02T05:01:06;5.03;;;1.83;;
25962;SDS011;13760;52.588;13.406;2022-09-02T05:03:33;5.80;;;2.35;;
25962;SDS011;13760;52.588;13.406;2022-09-02T05:06:01;4.53;;;2.20;;
25962;SDS011;13760;52.588;13.406;2022-09-02T05:08:37;5.18;;;2.35;;
25962;SDS011;13760;52.588;13.406;2022-09-02T05:11:07;3.53;;;2.20;;
25962;SDS011;13760;52.588;13.406;2022-09-02T05:13:34;3.28;;;1.90;;
25962;SDS011;13760;52.588;13.406;2022-09-02T05:18:33;5.30;;;2.25;;
25962;SDS011;13760;52.588;13.406;2022-09-02T05:21:03;3.05;;;2.00;;
25962;SDS011;13760;52.588;13.406;2022-09-02T05:23:32;5.53;;;2.05;;
25962;SDS011;13760;52.588;13.406;2022-09-02T05:26:01;4.45;;;2.13;;
25962;SDS011;13760;52.588;13.406;2022-09-02T05:28:31;8.00;;;2.58;;
25962;SDS011;13760;52.588;13.406;2022-09-02T05:31:03;4.90;;;1.98;;
25962;SDS011;13760;52.588;13.406;2022-09-02T05:33:39;3.70;;;1.83;;
25962;SDS011;13760;52.588;13.406;2022-09-02T05:36:06;3.78;;;2.17;;
25962;SDS011;13760;52.588;13.406;2022-09-02T05:38:33;5.82;;;1.90;;
25962;SDS011;13760;52.588;13.406;2022-09-02T05:41:03;6.32;;;2.08;;
25962;SDS011;13760;52.588;13.406;2022-09-02T05:43:33;5.32;;;1.80;;
25962;SDS011;13760;52.588;13.406;2022-09-02T05:46:02;4.65;;;1.85;;
25962;SDS011;13760;52.588;13.406;2022-09-02T05:48:30;2.88;;;1.70;;
25962;SDS011;13760;52.588;13.406;2022-09-02T05:51:15;6.20;;;2.08;;
25962;SDS011;13760;52.588;13.406;2022-09-02T05:53:41;8.63;;;2.17;;
25962;SDS011;13760;52.588;13.406;2022-09-02T05:56:06;6.78;;;2.00;;
25962;SDS011;13760;52.588;13.406;2022-09-02T05:58:32;2.00;;;1.58;;
25962;SDS011;13760;52.588;13.406;2022-09-02T06:00:57;2.47;;;1.98;;
25962;SDS011;13760;52.588;13.406;2022-09-02T06:03:23;3.75;;;1.80;;
25962;SDS011;13760;52.588;13.406;2022-09-02T06:05:52;3.83;;;1.73;;
25962;SDS011;13760;52.588;13.406;2022-09-02T06:08:22;5.00;;;1.80;;
25962;SDS011;13760;52.588;13.406;2022-09-02T06:10:47;2.58;;;1.75;;
25962;SDS011;13760;52.588;13.406;2022-09-02T06:13:13;4.63;;;1.83;;
25962;SDS011;13760;52.588;13.406;2022-09-02T06:15:40;5.65;;;2.10;;
25962;SDS011;13760;52.588;13.406;2022-09-02T06:18:10;4.35;;;1.80;;
25962;SDS011;13760;52.588;13.406;2022-09-02T06:20:40;4.68;;;2.47;;
25962;SDS011;13760;52.588;13.406;2022-09-02T06:23:06;4.80;;;1.77;;
25962;SDS011;13760;52.588;13.406;2022-09-02T06:25:35;4.68;;;2.00;;
25962;SDS011;13760;52.588;13.406;2022-09-02T06:28:01;4.20;;;2.05;;
25962;SDS011;13760;52.588;13.406;2022-09-02T06:30:27;3.80;;;1.50;;
25962;SDS011;13760;52.588;13.406;2022-09-02T06:32:52;5.78;;;2.10;;
25962;SDS011;13760;52.588;13.406;2022-09-02T06:35:19;2.70;;;2.00;;
25962;SDS011;13760;52.588;13.406;2022-09-02T06:37:46;11.90;;;2.53;;
25962;SDS011;13760;52.588;13.406;2022-09-02T06:40:11;6.10;;;2.05;;
25962;SDS011;13760;52.588;13.406;2022-09-02T06:42:38;7.28;;;2.10;;
25962;SDS011;13760;52.588;13.406;2022-09-02T06:45:03;2.15;;;1.50;;
25962;SDS011;13760;52.588;13.406;2022-09-02T06:47:29;5.85;;;1.83;;
25962;SDS011;13760;52.588;13.406;2022-09-02T06:49:55;2.72;;;1.85;;
25962;SDS011;13760;52.588;13.406;2022-09-02T06:52:21;5.63;;;2.00;;
25962;SDS011;13760;52.588;13.406;2022-09-02T06:54:47;2.85;;;2.15;;
25962;SDS011;13760;52.588;13.406;2022-09-02T06:57:13;10.80;;;2.60;;
25962;SDS011;13760;52.588;13.406;2022-09-02T06:59:39;4.53;;;2.08;;
25962;SDS011;13760;52.588;13.406;2022-09-02T07:02:04;5.38;;;2.10;;
25962;SDS011;13760;52.588;13.406;2022-09-02T07:04:31;5.18;;;2.33;;
25962;SDS011;13760;52.588;13.406;2022-09-02T07:07:15;12.85;;;2.28;;
25962;SDS011;13760;52.588;13.406;2022-09-02T07:09:40;6.57;;;2.38;;
25962;SDS011;13760;52.588;13.406;2022-09-02T07:12:06;4.60;;;2.33;;
25962;SDS011;13760;52.588;13.406;2022-09-02T07:14:36;5.43;;;2.15;;
25962;SDS011;13760;52.588;13.406;2022-09-02T07:19:29;3.67;;;2.22;;
25962;SDS011;13760;52.588;13.406;2022-09-02T07:21:55;2.95;;;2.30;;
25962;SDS011;13760;52.588;13.406;2022-09-02T07:24:20;7.57;;;2.40;;
25962;SDS011;13760;52.588;13.406;2022-09-02T07:26:47;3.22;;;1.75;;
25962;SDS011;13760;52.588;13.406;2022-09-02T07:29:13;5.78;;;2.45;;
25962;SDS011;13760;52.588;13.406;2022-09-02T07:31:41;6.45;;;1.90;;
25962;SDS011;13760;52.588;13.406;2022-09-02T07:34:08;5.63;;;1.73;;
25962;SDS011;13760;52.588;13.406;2022-09-02T07:36:35;2.25;;;1.70;;
25962;SDS011;13760;52.588;13.406;2022-09-02T07:39:02;5.15;;;1.90;;
25962;SDS011;13760;52.588;13.406;2022-09-02T07:41:29;3.45;;;1.77;;
25962;SDS011;13760;52.588;13.406;2022-09-02T07:43:55;5.03;;;1.50;;
25962;SDS011;13760;52.588;13.406;2022-09-02T07:46:21;4.03;;;1.77;;
25962;SDS011;13760;52.588;13.406;2022-09-02T07:48:46;2.58;;;1.60;;
25962;SDS011;13760;52.588;13.406;2022-09-02T07:51:14;3.22;;;1.70;;
25962;SDS011;13760;52.588;13.406;2022-09-02T07:53:41;3.95;;;1.92;;
25962;SDS011;13760;52.588;13.406;2022-09-02T07:56:07;5.20;;;1.52;;
25962;SDS011;13760;52.588;13.406;2022-09-02T07:58:33;4.10;;;1.25;;
25962;SDS011;13760;52.588;13.406;2022-09-02T08:00:59;6.60;;;1.67;;
25962;SDS011;13760;52.588;13.406;2022-09-02T08:03:26;6.05;;;1.55;;
25962;SDS011;13760;52.588;13.406;2022-09-02T08:05:52;6.13;;;1.58;;
25962;SDS011;13760;52.588;13.406;2022-09-02T08:08:18;5.57;;;1.65;;
25962;SDS011;13760;52.588;13.406;2022-09-02T08:10:45;4.43;;;1.50;;
25962;SDS011;13760;52.588;13.406;2022-09-02T08:13:14;6.30;;;1.80;;
25962;SDS011;13760;52.588;13.406;2022-09-02T08:15:40;2.75;;;1.27;;
25962;SDS011;13760;52.588;13.406;2022-09-02T08:18:06;2.60;;;1.42;;
25962;SDS011;13760;52.588;13.406;2022-09-02T08:20:33;4.55;;;1.20;;
25962;SDS011;13760;52.588;13.406;2022-09-02T08:22:59;10.05;;;1.65;;
25962;SDS011;13760;52.588;13.406;2022-09-02T08:25:28;1.85;;;1.10;;
25962;SDS011;13760;52.588;13.406;2022-09-02T08:27:53;5.07;;;1.45;;
25962;SDS011;13760;52.588;13.406;2022-09-02T08:30:19;5.30;;;1.27;;
25962;SDS011;13760;52.588;13.406;2022-09-02T08:32:45;1.92;;;1.10;;
25962;SDS011;13760;52.588;13.406;2022-09-02T08:35:10;2.45;;;1.33;;
25962;SDS011;13760;52.588;13.406;2022-09-02T08:37:36;1.95;;;1.10;;
25962;SDS011;13760;52.588;13.406;2022-09-02T08:40:05;2.50;;;1.20;;
25962;SDS011;13760;52.588;13.406;2022-09-02T08:42:37;5.90;;;1.17;;
25962;SDS011;13760;52.588;13.406;2022-09-02T08:47:34;3.50;;;1.20;;
25962;SDS011;13760;52.588;13.406;2022-09-02T08:50:08;4.85;;;1.15;;
25962;SDS011;13760;52.588;13.406;2022-09-02T08:55:52;4.30;;;1.00;;
25962;SDS011;13760;52.588;13.406;2022-09-02T08:58:21;4.95;;;1.08;;
25962;SDS011;13760;52.588;13.406;2022-09-02T09:06:46;2.38;;;0.90;;
25962;SDS011;13760;52.588;13.406;2022-09-02T09:09:29;3.53;;;0.90;;
25962;SDS011;13760;52.588;13.406;2022-09-02T09:15:02;1.42;;;0.80;;
25962;SDS011;13760;52.588;13.406;2022-09-02T09:17:38;5.47;;;0.98;;
25962;SDS011;13760;52.588;13.406;2022-09-02T09:20:10;1.98;;;0.70;;
25962;SDS011;13760;52.588;13.406;2022-09-02T09:22:44;2.70;;;0.90;;
25962;SDS011;13760;52.588;13.406;2022-09-02T09:25:14;2.50;;;0.70;;
25962;SDS011;13760;52.588;13.406;2022-09-02T09:28:02;5.45;;;0.95;;
25962;SDS011;13760;52.588;13.406;2022-09-02T09:30:40;1.85;;;0.70;;
25962;SDS011;13760;52.588;13.406;2022-09-02T09:33:05;3.53;;;0.98;;
25962;SDS011;13760;52.588;13.406;2022-09-02T09:35:52;2.17;;;0.70;;
25962;SDS011;13760;52.588;13.406;2022-09-02T09:38:27;1.63;;;0.80;;
25962;SDS011;13760;52.588;13.406;2022-09-02T09:41:14;2.10;;;0.70;;
25962;SDS011;13760;52.588;13.406;2022-09-02T09:43:43;1.95;;;0.90;;
25962;SDS011;13760;52.588;13.406;2022-09-02T09:46:19;2.88;;;0.82;;
25962;SDS011;13760;52.588;13.406;2022-09-02T09:48:49;5.85;;;0.90;;
25962;SDS011;13760;52.588;13.406;2022-09-02T09:51:17;2.15;;;0.93;;
25962;SDS011;13760;52.588;13.406;2022-09-02T09:53:43;2.30;;;0.80;;
25962;SDS011;13760;52.588;13.406;2022-09-02T10:01:23;2.33;;;1.05;;
25962;SDS011;13760;52.588;13.406;2022-09-02T10:09:04;4.20;;;1.10;;
25962;SDS011;13760;52.588;13.406;2022-09-02T10:11:53;2.33;;;0.70;;
25962;SDS011;13760;52.588;13.406;2022-09-02T10:14:25;2.35;;;0.70;;
25962;SDS011;13760;52.588;13.406;2022-09-02T10:17:19;2.50;;;0.90;;
25962;SDS011;13760;52.588;13.406;2022-09-02T10:19:59;1.75;;;0.77;;
25962;SDS011;13760;52.588;13.406;2022-09-02T10:31:33;2.63;;;0.63;;
25962;SDS011;13760;52.588;13.406;2022-09-02T10:45:20;2.47;;;1.10;;
25962;SDS011;13760;52.588;13.406;2022-09-02T10:48:17;6.32;;;0.90;;
25962;SDS011;13760;52.588;13.406;2022-09-02T10:51:07;2.97;;;0.80;;
25962;SDS011;13760;52.588;13.406;2022-09-02T10:54:02;1.30;;;0.80;;
25962;SDS011;13760;52.588;13.406;2022-09-02T10:56:39;2.80;;;0.80;;
25962;SDS011;13760;52.588;13.406;2022-09-02T10:59:31;2.83;;;1.00;;
25962;SDS011;13760;52.588;13.406;2022-09-02T11:02:05;4.07;;;1.33;;
25962;SDS011;13760;52.588;13.406;2022-09-02T11:04:45;3.17;;;0.95;;
25962;SDS011;13760;52.588;13.406;2022-09-02T11:07:19;4.68;;;1.20;;
25962;SDS011;13760;52.588;13.406;2022-09-02T11:10:03;2.50;;;1.02;;
25962;SDS011;13760;52.588;13.406;2022-09-02T11:12:35;1.92;;;0.90;;
25962;SDS011;13760;52.588;13.406;2022-09-02T11:21:06;1.50;;;0.90;;
25962;SDS011;13760;52.588;13.406;2022-09-02T11:24:15;4.65;;;0.90;;
25962;SDS011;13760;52.588;13.406;2022-09-02T11:26:53;2.53;;;1.00;;
25962;SDS011;13760;52.588;13.406;2022-09-02T11:32:38;1.13;;;0.77;;
25962;SDS011;13760;52.588;13.406;2022-09-02T11:35:09;2.00;;;0.82;;
25962;SDS011;13760;52.588;13.406;2022-09-02T11:41:10;1.33;;;0.98;;
25962;SDS011;13760;52.588;13.406;2022-09-02T11:43:44;1.73;;;1.00;;
25962;SDS011;13760;52.588;13.406;2022-09-02T11:49:01;1.42;;;0.80;;
25962;SDS011;13760;52.588;13.406;2022-09-02T11:52:02;4.70;;;1.15;;
25962;SDS011;13760;52.588;13.406;2022-09-02T11:54:50;1.27;;;0.80;;
25962;SDS011;13760;52.588;13.406;2022-09-02T11:57:38;0.95;;;0.68;;
25962;SDS011;13760;52.588;13.406;2022-09-02T12:00:05;2.30;;;1.20;;
25962;SDS011;13760;52.588;13.406;2022-09-02T12:02:42;1.55;;;0.93;;
25962;SDS011;13760;52.588;13.406;2022-09-02T12:05:42;2.35;;;0.80;;
25962;SDS011;13760;52.588;13.406;2022-09-02T12:08:14;2.22;;;0.90;;
25962;SDS011;13760;52.588;13.406;2022-09-02T12:13:39;2.22;;;1.00;;
25962;SDS011;13760;52.588;13.406;2022-09-02T12:21:17;3.15;;;0.90;;
25962;SDS011;13760;52.588;13.406;2022-09-02T12:26:17;2.33;;;1.00;;
25962;SDS011;13760;52.588;13.406;2022-09-02T12:28:42;7.10;;;1.13;;
25962;SDS011;13760;52.588;13.406;2022-09-02T12:31:14;3.22;;;1.05;;
25962;SDS011;13760;52.588;13.406;2022-09-02T12:33:46;4.72;;;0.80;;
25962;SDS011;13760;52.588;13.406;2022-09-02T12:50:09;2.75;;;0.90;;
25962;SDS011;13760;52.588;13.406;2022-09-02T12:52:50;3.05;;;0.90;;
25962;SDS011;13760;52.588;13.406;2022-09-02T12:55:33;1.67;;;0.88;;
25962;SDS011;13760;52.588;13.406;2022-09-02T12:58:10;1.42;;;0.90;;
25962;SDS011;13760;52.588;13.406;2022-09-02T13:00:51;3.58;;;1.27;;
25962;SDS011;13760;52.588;13.406;2022-09-02T13:06:36;3.15;;;1.00;;
25962;SDS011;13760;52.588;13.406;2022-09-02T13:09:21;1.80;;;1.00;;
25962;SDS011;13760;52.588;13.406;2022-09-02T13:15:18;2.20;;;1.10;;
25962;SDS011;13760;52.588;13.406;2022-09-02T13:20:48;2.28;;;1.10;;
25962;SDS011;13760;52.588;13.406;2022-09-02T13:29:50;2.55;;;0.90;;
25962;SDS011;13760;52.588;13.406;2022-09-02T13:32:32;3.15;;;1.10;;
25962;SDS011;13760;52.588;13.406;2022-09-02T13:35:04;2.45;;;1.20;;
25962;SDS011;13760;52.588;13.406;2022-09-02T13:37:36;2.47;;;1.25;;
25962;SDS011;13760;52.588;13.406;2022-09-02T13:40:18;2.22;;;1.08;;
25962;SDS011;13760;52.588;13.406;2022-09-02T13:42:50;2.47;;;1.13;;
25962;SDS011;13760;52.588;13.406;2022-09-02T13:45:19;4.55;;;1.27;;
25962;SDS011;13760;52.588;13.406;2022-09-02T13:47:50;2.67;;;1.15;;
25962;SDS011;13760;52.588;13.406;2022-09-02T13:50:19;1.20;;;0.95;;
25962;SDS011;13760;52.588;13.406;2022-09-02T13:52:48;1.65;;;1.10;;
25962;SDS011;13760;52.588;13.406;2022-09-02T13:55:21;1.88;;;1.38;;
25962;SDS011;13760;52.588;13.406;2022-09-02T13:57:57;4.85;;;1.10;;
25962;SDS011;13760;52.588;13.406;2022-09-02T14:00:28;2.17;;;1.00;;
25962;SDS011;13760;52.588;13.406;2022-09-02T14:03:05;1.48;;;1.10;;
25962;SDS011;13760;52.588;13.406;2022-09-02T14:05:51;3.22;;;1.10;;
25962;SDS011;13760;52.588;13.406;2022-09-02T14:08:21;2.90;;;1.10;;
25962;SDS011;13760;52.588;13.406;2022-09-02T14:10:50;1.85;;;1.10;;
25962;SDS011;13760;52.588;13.406;2022-09-02T14:13:17;4.43;;;1.13;;
25962;SDS011;13760;52.588;13.406;2022-09-02T14:15:45;3.42;;;1.10;;
25962;SDS011;13760;52.588;13.406;2022-09-02T14:18:21;2.08;;;1.10;;
25962;SDS011;13760;52.588;13.406;2022-09-02T14:20:53;4.40;;;1.00;;
25962;SDS011;13760;52.588;13.406;2022-09-02T14:23:49;2.17;;;0.93;;
25962;SDS011;13760;52.588;13.406;2022-09-02T14:26:24;2.92;;;1.13;;
25962;SDS011;13760;52.588;13.406;2022-09-02T14:28:57;6.32;;;1.35;;
25962;SDS011;13760;52.588;13.406;2022-09-02T14:31:24;2.00;;;1.02;;
25962;SDS011;13760;52.588;13.406;2022-09-02T14:33:54;7.03;;;1.13;;
25962;SDS011;13760;52.588;13.406;2022-09-02T14:39:13;1.88;;;0.88;;
25962;SDS011;13760;52.588;13.406;2022-09-02T14:41:51;4.47;;;1.20;;
25962;SDS011;13760;52.588;13.406;2022-09-02T14:44:28;1.05;;;0.93;;
25962;SDS011;13760;52.588;13.406;2022-09-02T14:46:59;1.30;;;0.85;;
25962;SDS011;13760;52.588;13.406;2022-09-02T14:49:28;2.97;;;1.05;;
25962;SDS011;13760;52.588;13.406;2022-09-02T14:52:00;3.88;;;1.10;;
25962;SDS011;13760;52.588;13.406;2022-09-02T14:54:32;2.30;;;0.80;;
25962;SDS011;13760;52.588;13.406;2022-09-02T14:57:00;2.45;;;0.68;;
25962;SDS011;13760;52.588;13.406;2022-09-02T14:59:25;4.45;;;0.85;;
25962;SDS011;13760;52.588;13.406;2022-09-02T15:01:55;1.38;;;0.70;;
25962;SDS011;13760;52.588;13.406;2022-09-02T15:04:22;3.50;;;0.90;;
25962;SDS011;13760;52.588;13.406;2022-09-02T15:06:51;1.30;;;0.73;;
25962;SDS011;13760;52.588;13.406;2022-09-02T15:09:18;3.20;;;0.90;;
25962;SDS011;13760;52.588;13.406;2022-09-02T15:11:55;1.73;;;0.70;;
25962;SDS011;13760;52.588;13.406;2022-09-02T15:14:30;1.35;;;0.75;;
25962;SDS011;13760;52.588;13.406;2022-09-02T15:17:45;2.20;;;0.82;;
25962;SDS011;13760;52.588;13.406;2022-09-02T15:20:13;1.98;;;0.77;;
25962;SDS011;13760;52.588;13.406;2022-09-02T15:22:42;1.30;;;0.80;;
25962;SDS011;13760;52.588;13.406;2022-09-02T15:25:10;3.95;;;1.00;;
25962;SDS011;13760;52.588;13.406;2022-09-02T15:27:36;1.33;;;0.80;;
25962;SDS011;13760;52.588;13.406;2022-09-02T15:30:05;2.10;;;0.90;;
25962;SDS011;13760;52.588;13.406;2022-09-02T15:32:33;2.30;;;0.88;;
25962;SDS011;13760;52.588;13.406;2022-09-02T15:35:05;1.80;;;0.80;;
25962;SDS011;13760;52.588;13.406;2022-09-02T15:37:32;2.97;;;0.85;;
25962;SDS011;13760;52.588;13.406;2022-09-02T15:40:03;3.35;;;0.85;;
25962;SDS011;13760;52.588;13.406;2022-09-02T15:42:36;1.50;;;0.70;;
25962;SDS011;13760;52.588;13.406;2022-09-02T15:45:03;1.15;;;0.80;;
25962;SDS011;13760;52.588;13.406;2022-09-02T15:47:38;0.82;;;0.70;;
25962;SDS011;13760;52.588;13.406;2022-09-02T15:50:06;0.98;;;0.63;;
25962;SDS011;13760;52.588;13.406;2022-09-02T15:52:33;1.73;;;0.68;;
25962;SDS011;13760;52.588;13.406;2022-09-02T15:54:59;3.85;;;1.00;;
25962;SDS011;13760;52.588;13.406;2022-09-02T16:00:07;1.45;;;0.90;;
25962;SDS011;13760;52.588;13.406;2022-09-02T16:02:42;1.55;;;0.90;;
25962;SDS011;13760;52.588;13.406;2022-09-02T16:05:08;4.65;;;0.90;;
25962;SDS011;13760;52.588;13.406;2022-09-02T16:07:38;1.75;;;0.98;;
25962;SDS011;13760;52.588;13.406;2022-09-02T16:10:03;1.90;;;0.70;;
25962;SDS011;13760;52.588;13.406;2022-09-02T16:12:32;2.03;;;0.90;;
25962;SDS011;13760;52.588;13.406;2022-09-02T16:14:58;1.33;;;0.80;;
25962;SDS011;13760;52.588;13.406;2022-09-02T16:17:23;0.88;;;0.65;;
25962;SDS011;13760;52.588;13.406;2022-09-02T16:19:51;2.85;;;0.82;;
25962;SDS011;13760;52.588;13.406;2022-09-02T16:22:18;3.13;;;0.82;;
25962;SDS011;13760;52.588;13.406;2022-09-02T16:24:47;3.10;;;0.70;;
25962;SDS011;13760;52.588;13.406;2022-09-02T16:27:14;2.30;;;0.73;;
25962;SDS011;13760;52.588;13.406;2022-09-02T16:30:00;2.83;;;1.00;;
25962;SDS011;13760;52.588;13.406;2022-09-02T16:32:25;1.40;;;0.73;;
25962;SDS011;13760;52.588;13.406;2022-09-02T16:34:51;1.52;;;0.82;;
25962;SDS011;13760;52.588;13.406;2022-09-02T16:37:19;2.78;;;0.98;;
25962;SDS011;13760;52.588;13.406;2022-09-02T16:39:45;2.60;;;0.98;;
25962;SDS011;13760;52.588;13.406;2022-09-02T16:42:10;1.50;;;1.00;;
25962;SDS011;13760;52.588;13.406;2022-09-02T16:44:36;3.47;;;0.85;;
25962;SDS011;13760;52.588;13.406;2022-09-02T16:47:01;3.75;;;1.13;;